Add date Part number Description Manufacture PDF
05-09-2015 AIT8427 (Document no: TD8427 12030001) Mob Alpha Imaging Technology AIT8427 datasheet
05-09-2015 B60NH02L STB60NH02L N-CHANNEL 24V - 0.0085 STMicroelectronics B60NH02L datasheet
05-09-2015 NT35510 NT35510 – General Specification O Novatek NT35510 datasheet
05-09-2015 CS13001 TO-92 Plastic-Encapsulate Transisto CAN SHENG CS13001 datasheet
05-09-2015 C6099 www..com Ordering number Sanyo Semicon Device C6099 datasheet
05-09-2015 MS51958 Downloaded from www.everyspe Military Standard MS51958 datasheet
05-09-2015 ASM1053 ASuSpMeArS1Sp0eMe5de3UdSDiBaaLttoCe ASMedia ASM1053 datasheet
05-09-2015 STN4826 STN4826 Dual N Channel Enhancement Stanson STN4826 datasheet
05-09-2015 PL2775 PL2775 SuperSpeed USB 3.0 to Dual S Prolific PL2775 datasheet
05-09-2015 CY15B104Q CY15B104Q 4-Mbit (512 K × 8) Seria Cypress Semiconductor CY15B104Q datasheet
05-09-2015 K1626 2SK1628, 2SK1629 Silicon N-Channel Hitachi Semiconductor K1626 datasheet
05-09-2015 MUR480EG MUR480EG, MUR4100EG SWITCHMODE Pow ON Semiconductor MUR480EG datasheet
05-09-2015 MUR4100EG MUR480EG, MUR4100EG SWITCHMODE Pow ON Semiconductor MUR4100EG datasheet
05-09-2015 LTN141BT08-002 Approval TO : Lenovo DATE : Dec 1, Samsung LTN141BT08-002 datasheet
05-09-2015 TC55V8200FT-10 Toshiba TC55V8200FT-10 datasheet
05-09-2015 TC55V8200FT-12 Toshiba TC55V8200FT-12 datasheet
05-09-2015 TC55V8200FT-15 Toshiba TC55V8200FT-15 datasheet
05-09-2015 SM7320 SM7320高效LED恒流驱动芯片 v Linkage SM7320 datasheet
05-09-2015 K3277-01L > Features - High Current - Low On- Fuji Electric K3277-01L datasheet
05-09-2015 K3277-01S > Features - High Current - Low On- Fuji Electric K3277-01S datasheet
05-09-2015 SDM7128-XC Specification : TS-S98D017A Novembe Sumitomo SDM7128-XC datasheet
05-09-2015 FD121238LB FD1238 SERIES 120x120x38mm Airflow YS TECH FD121238LB datasheet
05-09-2015 FD121238MB FD1238 SERIES 120x120x38mm Airflow YS TECH FD121238MB datasheet
05-09-2015 FD121238HB FD1238 SERIES 120x120x38mm Airflow YS TECH FD121238HB datasheet
05-09-2015 FD121238EB FD1238 SERIES 120x120x38mm Airflow YS TECH FD121238EB datasheet
05-09-2015 FD121238EB FD1238 SERIES 120x120x38mm Airflow YS TECH FD121238EB datasheet
05-09-2015 FD121238EB FD1238 SERIES 120x120x38mm Airflow YS TECH FD121238EB datasheet
05-09-2015 FD121238UB FD1238 SERIES 120x120x38mm Airflow YS TECH FD121238UB datasheet
05-09-2015 FD241238LB FD1238 SERIES 120x120x38mm Airflow YS TECH FD241238LB datasheet
05-09-2015 FD241238MB FD1238 SERIES 120x120x38mm Airflow YS TECH FD241238MB datasheet
05-09-2015 FD241238HB FD1238 SERIES 120x120x38mm Airflow YS TECH FD241238HB datasheet
05-09-2015 FD241238EB FD1238 SERIES 120x120x38mm Airflow YS TECH FD241238EB datasheet
05-09-2015 FD241238EB FD1238 SERIES 120x120x38mm Airflow YS TECH FD241238EB datasheet
05-09-2015 FD241238EB FD1238 SERIES 120x120x38mm Airflow YS TECH FD241238EB datasheet
05-09-2015 FD241238UB FD1238 SERIES 120x120x38mm Airflow YS TECH FD241238UB datasheet
05-09-2015 FD481238LB FD1238 SERIES 120x120x38mm Airflow YS TECH FD481238LB datasheet
05-09-2015 FD481238MB FD1238 SERIES 120x120x38mm Airflow YS TECH FD481238MB datasheet
05-09-2015 FD481238HB FD1238 SERIES 120x120x38mm Airflow YS TECH FD481238HB datasheet
05-09-2015 FD481238EB FD1238 SERIES 120x120x38mm Airflow YS TECH FD481238EB datasheet
05-09-2015 FD481238EB FD1238 SERIES 120x120x38mm Airflow YS TECH FD481238EB datasheet
05-09-2015 FD481238EB FD1238 SERIES 120x120x38mm Airflow YS TECH FD481238EB datasheet
05-09-2015 FD481238UB FD1238 SERIES 120x120x38mm Airflow YS TECH FD481238UB datasheet
05-09-2015 STX616 STX616 High voltage NPN power trans STMicroelectronics STX616 datasheet
05-09-2015 STX616-AP STX616 High voltage NPN power trans STMicroelectronics STX616-AP datasheet
05-09-2015 G1427F31U Global Mixed-mode Technology Inc. 2 Global Mixed-mode Technology G1427F31U datasheet
05-09-2015 SP5610 SP5610 高精度原边反馈开关 Silicon Power Microelectronics SP5610 datasheet
05-09-2015 SP5610 FEBRUARY 1997 ADVANCE INFORMATION D Zarlink Semiconductor SP5610 datasheet
05-09-2015 CN5610 Switch-Mode High-Brightness LED Dri CONSONANCE CN5610 datasheet
05-09-2015 K1285 NEC K1285 datasheet
05-09-2015 D16857 DATA SHEET MOS INTEGRATED CIRCUIT NEC D16857 datasheet
05-09-2015 CD7523CS 华晶双极电路 CD7523CS 4W Huajing Microelectronics CD7523CS datasheet


The site has been moved : DatasheetsPDF.com
Since 2005 - HOME - Link US - All - Privacy Policy & Contact Us -